Latest Weather Observations for Archerfield

IDQ60901

Issued at 5:05 pm EST Tuesday 21 October 2014 (issued every 10 minutes, with the page automatically refreshed every 10 minutes)

About weather observations | Map of Brisbane area stations | Latest observations for Brisbane area | Other Formats
Station Details ID: 040211 Name: ARCHERFIELD AIRPORT Lat: -27.57 Lon: 153.01 Height: 12.5 m
Data from the previous 72 hours. | See also: Recent months at Archerfield
Date/Time
EST
Tmp

°C
App
Tmp
°C
Dew
Point
°C
Rel
Hum
%
Delta-T

°C
Wind Press
QNH
hPa
Press
MSL
hPa
Rain
since
9 am
mm
Dir
 
Spd
km/h
Gust
km/h
Spd
kts
Gust
kts
21/05:00pm 21.7 18.2 13.3 59 4.8 E 24 33 13 18 1025.1 1025.0 0.0
21/04:30pm 22.6 18.7 13.4 56 5.3 SE 26 35 14 19 1024.9 1024.8 0.0
21/04:00pm 22.9 18.7 13.4 55 5.5 ESE 28 37 15 20 1024.6 1024.5 0.0
21/03:30pm 23.3 19.2 13.8 55 5.5 ESE 28 43 15 23 1024.4 1024.3 0.0
21/03:00pm 23.7 18.2 13.6 53 5.9 ESE 35 44 19 24 1024.4 1024.3 0.0
21/02:30pm 24.4 19.9 13.9 52 6.2 ESE 30 41 16 22 1024.3 1024.2 0.0
21/02:00pm 25.3 22.6 13.5 48 6.9 ESE 20 32 11 17 1024.4 1024.3 0.0
21/01:30pm 24.7 19.7 12.3 46 7.1 ESE 30 39 16 21 1024.6 1024.5 0.0
21/01:00pm 25.0 23.0 12.6 46 7.1 SSE 15 24 8 13 1025.0 1024.9 0.0
21/12:30pm 24.7 22.2 12.3 46 7.1 SSE 17 24 9 13 1025.3 1025.2 0.0
21/12:00pm 24.9 21.6 12.8 47 7.0 SE 22 32 12 17 1025.6 1025.5 0.0
21/11:30am 24.6 21.7 12.9 48 6.8 ESE 20 32 11 17 1026.2 1026.1 0.0
21/11:00am 24.8 22.5 13.0 47 6.8 SE 17 28 9 15 1026.3 1026.2 0.0
21/10:30am 25.1 21.9 13.0 47 7.0 SE 22 30 12 16 1026.5 1026.4 0.0
21/10:00am 24.6 21.0 13.2 49 6.6 ESE 24 35 13 19 1026.6 1026.5 0.0
21/09:30am 24.7 22.1 13.9 51 6.4 SE 20 33 11 18 1026.8 1026.7 0.0
21/09:00am 22.8 19.5 12.7 53 5.7 SE 22 35 12 19 1027.1 1027.0 0.0
21/08:30am 23.0 20.4 13.8 56 5.4 SE 20 32 11 17 1027.2 1027.1 0.0
21/08:00am 21.8 18.2 14.2 62 4.4 ESE 26 33 14 18 1027.0 1026.9 0.0
21/07:30am 21.0 21.0 15.1 69 3.5 S 9 17 5 9 1026.8 1026.7 0.0
21/07:00am 20.1 20.4 14.9 72 3.0 SSE 7 11 4 6 1026.6 1026.5 0.0
21/06:30am 19.2 19.7 14.9 76 2.5 S 6 9 3 5 1026.2 1026.1 0.0
21/06:00am 18.3 18.6 15.0 81 1.9 SSW 7 11 4 6 1026.0 1025.9 0.0
21/05:30am 17.6 17.6 14.3 81 1.9 SW 7 9 4 5 1025.7 1025.6 0.0
21/05:00am 17.8 16.6 14.1 79 2.1 S 13 15 7 8 1025.6 1025.5 0.0
21/04:30am 17.4 16.9 13.9 80 2.0 S 9 11 5 6 1025.3 1025.2 0.0
21/04:00am 16.6 17.8 13.9 84 1.5 CALM 0 6 0 3 1025.0 1024.9 0.0
21/03:30am 16.3 16.0 13.2 82 1.7 S 7 9 4 5 1025.0 1024.9 0.0
21/03:00am 16.7 17.8 13.4 81 1.8 CALM 0 0 0 0 1025.1 1025.0 0.0
21/02:30am 16.8 16.3 13.9 83 1.6 S 9 11 5 6 1025.2 1025.1 0.0
21/02:00am 15.8 15.5 12.7 82 1.7 SSW 6 7 3 4 1025.3 1025.2 0.0
21/01:30am 18.1 17.7 14.0 77 2.3 ESE 9 9 5 5 1025.5 1025.4 0.0
21/01:00am 18.1 17.9 13.6 75 2.5 E 7 9 4 5 1025.7 1025.6 0.0
21/12:30am 18.0 17.5 13.7 76 2.4 ESE 9 13 5 7 1026.0 1025.9 0.0
21/12:00am 18.3 17.8 13.8 75 2.6 E 9 13 5 7 1026.3 1026.2 0.0
 
Date/Time
EST
Tmp

°C
App
Tmp
°C
Dew
Point
°C
Rel
Hum
%
Delta-T

°C
Wind Press
QNH
hPa
Press
MSL
hPa
Rain
since
9 am
mm
Dir
 
Spd
km/h
Gust
km/h
Spd
kts
Gust
kts
20/11:30pm 17.8 17.4 12.9 73 2.7 ENE 7 11 4 6 1026.6 1026.5 0.0
20/11:00pm 17.5 17.5 12.4 72 2.8 E 4 7 2 4 1026.8 1026.7 0.0
20/10:30pm 18.6 18.3 12.8 69 3.3 ESE 6 7 3 4 1027.0 1026.9 0.0
20/10:00pm 19.0 17.9 13.0 68 3.4 ESE 11 15 6 8 1026.9 1026.8 0.0
20/09:30pm 19.2 17.3 12.9 67 3.6 SE 15 19 8 10 1026.9 1026.8 0.0
20/09:00pm 19.2 18.1 13.2 68 3.4 SE 11 15 6 8 1026.8 1026.7 0.0
20/08:30pm 19.7 18.1 12.9 65 3.8 ESE 13 17 7 9 1026.5 1026.4 0.0
20/08:00pm 19.9 17.6 12.9 64 3.9 E 17 24 9 13 1026.1 1026.0 0.0
20/07:30pm 20.2 18.2 12.7 62 4.2 E 15 20 8 11 1025.6 1025.5 0.0
20/07:00pm 20.5 18.7 13.2 63 4.1 ENE 15 22 8 12 1024.8 1024.7 0.0
20/06:30pm 20.7 17.8 12.9 61 4.4 NE 20 24 11 13 1024.1 1024.0 0.0
20/06:00pm 21.3 18.6 13.0 59 4.7 NE 19 22 10 12 1023.5 1023.4 0.0
20/05:30pm 22.3 19.4 12.8 55 5.4 NE 20 28 11 15 1023.1 1023.0 0.0
20/05:00pm 23.4 20.1 12.7 51 6.1 NE 22 28 12 15 1022.5 1022.4 0.0
20/04:30pm 24.4 21.4 12.0 46 7.1 NE 19 24 10 13 1022.1 1022.0 0.0
20/04:00pm 25.1 21.9 12.0 44 7.5 NNE 20 24 11 13 1021.8 1021.7 0.0
20/03:30pm 25.4 22.3 12.3 44 7.5 NNE 20 26 11 14 1021.6 1021.5 0.0
20/03:00pm 25.8 23.0 12.6 44 7.6 NE 19 26 10 14 1021.5 1021.4 0.0
20/02:30pm 26.1 22.3 12.5 42 7.9 NE 24 32 13 17 1021.5 1021.4 0.0
20/02:00pm 26.3 23.1 12.0 41 8.2 N 20 30 11 16 1021.6 1021.5 0.0
20/01:30pm 26.2 23.6 11.9 41 8.2 NNE 17 24 9 13 1021.9 1021.8 0.0
20/01:00pm 25.7 23.5 10.7 39 8.4 NNW 13 22 7 12 1022.4 1022.3 0.0
20/12:30pm 25.8 22.4 11.2 40 8.3 N 20 28 11 15 1022.7 1022.6 0.0
20/12:00pm 25.7 24.2 11.8 42 7.9 NE 11 20 6 11 1023.1 1023.0 0.0
20/11:30am 25.1 23.1 11.6 42 7.7 N 13 28 7 15 1023.7 1023.6 0.0
20/11:00am 24.8 23.2 11.7 44 7.4 NE 11 19 6 10 1024.1 1024.0 0.0
20/10:30am 24.0 21.9 11.3 45 7.1 N 13 22 7 12 1024.7 1024.6 0.0
20/10:00am 23.3 22.7 11.7 48 6.5 S 6 15 3 8 1025.2 1025.1 0.0
20/09:30am 22.6 21.8 11.7 50 6.1 WNW 7 15 4 8 1025.4 1025.3 0.0
20/09:00am 22.1 21.2 11.5 51 5.9 NW 7 15 4 8 1025.6 1025.5 0.0
20/08:30am 21.0 20.2 11.1 53 5.5 NNE 6 9 3 5 1025.8 1025.7 0.0
20/08:00am 20.6 20.5 12.1 58 4.7 WSW 4 6 2 3 1025.7 1025.6 0.0
20/07:30am 18.3 17.6 11.4 64 3.8 S 6 9 3 5 1025.8 1025.7 0.0
20/07:00am 16.6 15.4 11.5 72 2.7 S 9 11 5 6 1025.7 1025.6 0.0
20/06:30am 15.3 14.1 11.5 78 2.0 SSW 9 13 5 7 1025.5 1025.4 0.0
20/06:00am 13.5 13.9 11.2 86 1.2 CALM 0 6 0 3 1025.2 1025.1 0.0
20/05:30am 12.7 11.8 10.6 87 1.1 S 6 7 3 4 1025.0 1024.9 0.0
20/05:00am 11.8 10.7 9.9 88 1.0 SSW 6 7 3 4 1024.9 1024.8 0.0
20/04:30am 12.9 11.9 10.4 85 1.3 S 6 9 3 5 1024.7 1024.6 0.0
20/04:00am 12.8 12.7 10.7 87 1.1 S 2 7 1 4 1024.6 1024.5 0.0
20/03:30am 12.9 11.7 10.4 85 1.3 S 7 9 4 5 1024.6 1024.5 0.0
20/03:00am 13.1 12.2 10.8 86 1.2 SSW 6 7 3 4 1024.5 1024.4 0.0
20/02:30am 13.1 13.1 11.0 87 1.1 SSW 2 7 1 4 1024.7 1024.6 0.0
20/02:00am 12.7 12.1 10.4 86 1.2 W 4 7 2 4 1024.8 1024.7 0.0
20/01:30am 13.8 13.4 11.0 83 1.5 S 4 7 2 4 1025.0 1024.9 0.0
20/01:00am 14.1 12.4 11.3 83 1.5 S 11 13 6 7 1025.4 1025.3 0.0
20/12:30am 14.3 12.6 11.1 81 1.7 S 11 11 6 6 1025.8 1025.7 0.0
20/12:00am 14.9 13.6 11.3 79 1.9 S 9 9 5 5 1025.9 1025.8 0.0
 
Date/Time
EST
Tmp

°C
App
Tmp
°C
Dew
Point
°C
Rel
Hum
%
Delta-T

°C
Wind Press
QNH
hPa
Press
MSL
hPa
Rain
since
9 am
mm
Dir
 
Spd
km/h
Gust
km/h
Spd
kts
Gust
kts
19/11:30pm 15.4 14.5 11.4 77 2.1 S 7 9 4 5 1026.2 1026.1 0.0
19/11:00pm 16.5 15.6 11.2 71 2.8 ESE 7 9 4 5 1026.5 1026.4 0.0
19/10:30pm 16.6 15.3 11.3 71 2.9 ESE 9 9 5 5 1026.5 1026.4 0.0
19/10:00pm 17.4 16.7 11.4 68 3.2 ESE 6 7 3 4 1026.5 1026.4 0.0
19/09:30pm 16.8 16.1 11.3 70 3.0 ENE 6 7 3 4 1026.5 1026.4 0.0
19/09:00pm 16.2 15.3 10.5 69 3.0 NNE 6 7 3 4 1026.3 1026.2 0.0
19/08:30pm 17.0 15.3 11.3 69 3.1 NNE 11 13 6 7 1026.2 1026.1 0.0
19/08:00pm 17.6 16.5 10.5 63 3.8 NE 7 9 4 5 1026.0 1025.9 0.0
19/07:30pm 18.7 16.4 10.5 59 4.4 ENE 13 15 7 8 1025.8 1025.7 0.0
19/07:00pm 19.2 16.9 10.5 57 4.7 E 13 19 7 10 1025.6 1025.5 0.0
19/06:30pm 19.6 16.6 10.6 56 4.9 ENE 17 22 9 12 1025.1 1025.0 0.0
19/06:00pm 20.5 17.0 10.9 54 5.2 E 20 30 11 16 1024.6 1024.5 0.0
19/05:30pm 21.2 17.4 11.0 52 5.6 ENE 22 30 12 16 1024.2 1024.1 0.0
19/05:00pm 22.1 18.3 11.2 50 6.0 E 22 32 12 17 1023.7 1023.6 0.0
19/04:30pm 23.1 19.4 11.5 48 6.5 E 22 28 12 15 1023.4 1023.3 0.0
19/04:00pm 23.4 19.3 11.5 47 6.7 E 24 32 13 17 1023.2 1023.1 0.0
19/03:30pm 24.6 21.4 11.9 45 7.2 E 20 24 11 13 1023.1 1023.0 0.0
19/03:00pm 24.4 20.8 12.0 46 7.0 ESE 22 32 12 17 1023.0 1022.9 0.0
19/02:30pm 24.7 20.6 11.6 44 7.4 E 24 32 13 17 1023.3 1023.2 0.0
19/02:00pm 25.0 21.6 11.2 42 7.7 ESE 20 33 11 18 1023.6 1023.5 0.0
19/01:30pm 25.5 22.5 12.0 43 7.7 E 19 26 10 14 1024.0 1023.9 0.0
19/01:00pm 24.9 22.7 10.7 40 7.9 ESE 13 26 7 14 1024.5 1024.4 0.0
19/12:30pm 25.0 22.7 11.6 43 7.6 ENE 15 26 8 14 1025.0 1024.9 0.0
19/12:00pm 25.2 22.2 9.1 36 8.7 ESE 15 28 8 15 1025.3 1025.2 0.0
19/11:30am 24.8 23.3 10.7 41 7.9 E 9 17 5 9 1025.7 1025.6 0.0
19/11:00am 25.0 21.1 12.2 44 7.3 ESE 24 26 13 14 1026.2 1026.1 0.0
19/10:30am 24.4 22.6 11.0 43 7.5 E 11 17 6 9 1026.6 1026.5 0.0
19/10:00am 22.9 20.5 10.0 44 7.0 ESE 13 22 7 12 1027.1 1027.0 0.0
19/09:30am 23.1 19.9 9.8 43 7.2 E 17 32 9 17 1027.5 1027.4 0.0
19/09:00am 23.6 20.5 11.6 47 6.7 E 19 22 10 12 1027.8 1027.7 0.0
19/08:30am 22.1 20.2 11.8 52 5.8 ESE 13 20 7 11 1027.9 1027.8 0.0
19/08:00am 20.8 19.3 12.0 57 4.9 SSE 11 17 6 9 1027.9 1027.8 0.0
19/07:30am 19.2 17.5 12.5 65 3.7 S 13 19 7 10 1027.8 1027.7 0.0
19/07:00am 17.7 17.2 12.6 72 2.8 SSW 7 13 4 7 1027.8 1027.7 0.0
19/06:30am 16.2 15.7 12.2 77 2.2 WSW 6 9 3 5 1027.3 1027.2 0.0
19/06:00am 14.9 14.4 12.0 83 1.6 SW 6 6 3 3 1027.1 1027.0 0.0
19/05:30am 14.1 13.3 11.8 86 1.2 SSW 7 7 4 4 1026.8 1026.7 0.0
19/05:00am 12.7 11.6 10.8 88 1.0 SW 7 9 4 5 1026.4 1026.3 0.0
19/04:30am 13.8 12.4 11.0 83 1.5 S 9 11 5 6 1026.1 1026.0 0.0
19/04:00am 14.5 13.2 11.3 81 1.7 S 9 11 5 6 1025.9 1025.8 0.0
19/03:30am 15.3 13.4 11.7 79 1.9 S 13 17 7 9 1025.8 1025.7 0.0
19/03:00am 15.5 13.6 11.7 78 2.0 S 13 17 7 9 1025.7 1025.6 0.0
19/02:30am 15.5 14.3 11.5 77 2.2 S 9 13 5 7 1025.8 1025.7 0.0
19/02:00am 16.0 14.8 11.6 75 2.4 S 9 11 5 6 1025.9 1025.8 0.0
19/01:30am 16.5 15.0 11.9 74 2.5 SSE 11 13 6 7 1026.0 1025.9 0.0
19/01:00am 16.5 14.8 12.3 76 2.3 SSE 13 17 7 9 1026.2 1026.1 0.0
19/12:30am 16.3 15.0 12.5 78 2.1 S 11 13 6 7 1026.6 1026.5 0.0
19/12:00am 16.1 14.7 12.3 78 2.1 SSE 11 13 6 7 1026.8 1026.7 0.0
 
Date/Time
EST
Tmp

°C
App
Tmp
°C
Dew
Point
°C
Rel
Hum
%
Delta-T

°C
Wind Press
QNH
hPa
Press
MSL
hPa
Rain
since
9 am
mm
Dir
 
Spd
km/h
Gust
km/h
Spd
kts
Gust
kts
18/11:30pm 16.3 15.0 12.5 78 2.1 SSE 11 15 6 8 1027.0 1026.9 0.0
18/11:00pm 16.8 15.9 12.5 76 2.4 S 9 13 5 7 1027.1 1027.0 0.0
18/10:30pm 17.6 15.9 12.5 72 2.8 SSE 13 17 7 9 1027.1 1027.0 0.0
18/10:00pm 17.9 16.3 12.8 72 2.8 ESE 13 17 7 9 1027.2 1027.1 0.0
18/09:30pm 18.1 17.0 13.0 72 2.9 SSE 11 13 6 7 1027.1 1027.0 0.0
18/09:00pm 18.4 16.9 13.0 71 3.0 ESE 13 20 7 11 1027.1 1027.0 0.0
18/08:30pm 18.8 17.3 13.2 70 3.2 ESE 13 19 7 10 1027.0 1026.9 0.0
18/08:00pm 19.3 17.1 13.2 68 3.4 ESE 17 24 9 13 1026.8 1026.7 0.0
18/07:30pm 19.4 16.6 13.3 68 3.5 E 20 26 11 14 1026.7 1026.6 0.0
18/07:00pm 19.7 16.4 12.7 64 3.9 E 22 37 12 20 1026.2 1026.1 0.0
18/06:30pm 19.9 18.4 13.1 65 3.9 ESE 13 19 7 10 1025.7 1025.6 0.0
18/06:00pm 20.1 14.7 12.3 61 4.3 E 32 43 17 23 1025.2 1025.1 0.0
18/05:30pm 20.8 15.6 12.8 60 4.5 E 32 41 17 22 1024.6 1024.5 0.0

Latest Capital City Observations: Canberra | Sydney | Melbourne | Brisbane | Adelaide | Perth | Hobart | Darwin

Other Formats:

Comma delimited format used in spreadsheet applications
http://www.bom.gov.au/fwo/IDQ60901/IDQ60901.94575.axf

JavaScript Object Notation format (JSON) in row-major order
http://www.bom.gov.au/fwo/IDQ60901/IDQ60901.94575.json